Time;durP1;ratioP1;P1;durP2;ratioP2;P2;SDS_P1;SDS_P2;PMS_P1;PMS_P2;Temp;Humidity;BMP_temperature;BMP_pressure;BME280_temperature;BME280_humidity;BME280_pressure;Samples;Min_cycle;Max_cycle;Signal;HPM_P1;HPM_P2
2023/12/30 00:02:05;;;;;;;4.55;1.50;;;8.70;99.90;;;;;;4996399;28;20422;-65
2023/12/30 00:04:32;;;;;;;6.57;2.00;;;8.70;99.90;;;;;;4989548;28;20428;-64
2023/12/30 00:06:59;;;;;;;4.65;1.23;;;8.80;99.90;;;;;;5000768;28;20503;-64
2023/12/30 00:09:26;;;;;;;4.55;1.60;;;8.80;99.90;;;;;;4997191;28;20838;-64
2023/12/30 00:11:54;;;;;;;4.90;1.50;;;8.90;99.90;;;;;;5002441;28;20421;-64
2023/12/30 00:14:22;;;;;;;5.40;1.60;;;8.90;99.90;;;;;;4988295;28;20954;-64
2023/12/30 00:16:49;;;;;;;4.43;1.70;;;8.80;99.90;;;;;;5003221;28;20417;-65
2023/12/30 00:19:15;;;;;;;4.40;1.80;;;8.80;99.90;;;;;;5003839;28;20421;-65
2023/12/30 00:21:42;;;;;;;5.75;1.83;;;8.90;99.90;;;;;;5003140;28;20444;-65
2023/12/30 00:24:09;;;;;;;3.85;1.40;;;8.90;99.90;;;;;;5001013;28;20585;-64
2023/12/30 00:26:35;;;;;;;5.10;2.25;;;8.90;99.90;;;;;;4987648;28;20434;-64
2023/12/30 00:29:02;;;;;;;5.40;1.60;;;9.00;99.90;;;;;;4995969;28;20453;-64
2023/12/30 00:31:31;;;;;;;4.55;1.50;;;9.00;99.90;;;;;;4997375;28;20410;-64
2023/12/30 00:33:59;;;;;;;8.68;2.58;;;9.10;99.90;;;;;;4999083;28;20440;-64
2023/12/30 00:36:26;;;;;;;6.15;1.70;;;9.00;99.90;;;;;;4997436;28;20903;-64
2023/12/30 00:38:54;;;;;;;4.65;1.50;;;9.00;99.90;;;;;;4996668;28;20422;-64
2023/12/30 00:41:21;;;;;;;5.35;2.17;;;9.10;99.90;;;;;;5002381;28;20522;-64
2023/12/30 00:43:47;;;;;;;5.30;1.67;;;9.20;99.90;;;;;;4993838;28;20418;-65
2023/12/30 00:46:14;;;;;;;7.50;1.90;;;9.10;99.90;;;;;;4995428;28;20805;-65
2023/12/30 00:48:42;;;;;;;8.85;2.20;;;9.00;99.90;;;;;;5001674;28;20424;-66
2023/12/30 00:51:09;;;;;;;6.77;2.53;;;9.00;99.90;;;;;;5001415;28;20452;-65
2023/12/30 00:53:36;;;;;;;8.13;2.38;;;8.90;99.90;;;;;;4998581;28;20418;-65
2023/12/30 00:56:03;;;;;;;6.38;2.05;;;8.90;99.90;;;;;;4995749;28;20753;-65
2023/12/30 00:58:30;;;;;;;8.25;2.40;;;8.90;99.90;;;;;;4997322;28;20503;-65
2023/12/30 01:00:57;;;;;;;9.43;2.88;;;8.90;99.90;;;;;;4994104;28;20435;-64
2023/12/30 01:03:24;;;;;;;8.02;1.95;;;9.00;99.90;;;;;;5000494;28;20410;-65
2023/12/30 01:05:53;;;;;;;7.30;2.55;;;9.00;99.90;;;;;;4997442;28;20441;-65
2023/12/30 01:08:19;;;;;;;10.40;2.45;;;9.10;99.90;;;;;;4994278;28;20450;-64
2023/12/30 01:10:46;;;;;;;4.70;1.90;;;9.10;99.90;;;;;;4999077;28;20441;-64
2023/12/30 01:13:13;;;;;;;7.38;2.10;;;9.20;99.90;;;;;;4991752;28;20414;-65
2023/12/30 01:15:40;;;;;;;7.70;2.50;;;9.30;99.90;;;;;;4992665;28;20420;-65
2023/12/30 01:18:07;;;;;;;5.28;2.08;;;9.30;99.90;;;;;;5004552;28;20527;-64
2023/12/30 01:20:33;;;;;;;9.30;2.80;;;9.40;99.90;;;;;;5005092;28;20443;-65
2023/12/30 01:23:01;;;;;;;5.63;2.13;;;9.40;99.90;;;;;;4998081;28;20442;-65
2023/12/30 01:25:28;;;;;;;5.57;1.73;;;9.40;99.90;;;;;;5000504;28;20441;-64
2023/12/30 01:27:55;;;;;;;5.50;2.20;;;9.40;99.90;;;;;;4990281;28;20464;-66
2023/12/30 01:30:21;;;;;;;6.35;2.20;;;9.40;99.90;;;;;;5001024;28;21133;-65
2023/12/30 01:32:48;;;;;;;6.18;1.88;;;9.30;99.90;;;;;;4995290;28;20441;-64
2023/12/30 01:35:15;;;;;;;6.15;2.00;;;9.30;99.90;;;;;;5000303;28;20433;-64
2023/12/30 01:37:42;;;;;;;4.78;1.90;;;9.30;99.90;;;;;;5000995;28;20479;-64
2023/12/30 01:40:11;;;;;;;9.20;2.15;;;9.20;99.90;;;;;;5000903;28;20591;-64
2023/12/30 01:42:41;;;;;;;7.90;2.25;;;9.20;99.90;;;;;;5000323;28;20481;-64
2023/12/30 01:45:08;;;;;;;7.55;2.80;;;9.10;99.90;;;;;;4999401;28;20918;-65
2023/12/30 01:47:36;;;;;;;7.10;2.17;;;9.20;99.90;;;;;;4985152;28;20441;-65
2023/12/30 01:50:04;;;;;;;6.50;2.70;;;9.10;99.90;;;;;;5005963;28;20555;-64
2023/12/30 01:52:32;;;;;;;5.40;2.10;;;9.10;99.90;;;;;;5000154;28;20426;-64
2023/12/30 01:54:58;;;;;;;7.47;2.15;;;9.20;99.90;;;;;;4997584;28;20448;-64
2023/12/30 01:57:26;;;;;;;6.28;2.20;;;9.30;99.90;;;;;;4987798;28;20414;-65
2023/12/30 01:59:54;;;;;;;5.87;2.10;;;9.30;99.90;;;;;;4997227;28;20424;-64
2023/12/30 02:02:21;;;;;;;4.78;1.98;;;9.30;99.90;;;;;;4993887;28;20434;-64
2023/12/30 02:04:48;;;;;;;6.97;2.17;;;9.30;99.90;;;;;;5005426;28;20853;-64
2023/12/30 02:07:15;;;;;;;8.38;2.72;;;9.20;99.90;;;;;;4997945;28;20451;-65
2023/12/30 02:09:41;;;;;;;6.75;2.28;;;9.00;99.90;;;;;;5000003;28;20418;-64
2023/12/30 02:12:08;;;;;;;6.90;2.85;;;8.90;99.90;;;;;;4997429;28;20482;-64
2023/12/30 02:14:36;;;;;;;8.02;3.20;;;8.80;99.90;;;;;;4993988;28;20421;-64
2023/12/30 02:17:03;;;;;;;10.23;2.80;;;8.70;99.90;;;;;;4997870;28;20440;-65
2023/12/30 02:19:30;;;;;;;4.88;2.10;;;8.70;99.90;;;;;;4996430;28;20443;-64
2023/12/30 02:21:57;;;;;;;7.18;2.00;;;8.60;99.90;;;;;;5004649;28;20894;-64
2023/12/30 02:24:25;;;;;;;7.53;2.03;;;8.70;99.90;;;;;;5004096;28;20882;-64
2023/12/30 02:26:51;;;;;;;5.15;1.98;;;8.60;99.90;;;;;;5002757;28;20566;-66
2023/12/30 02:29:18;;;;;;;6.38;1.90;;;8.70;99.90;;;;;;4987946;28;20854;-65
2023/12/30 02:31:48;;;;;;;7.60;2.40;;;8.80;99.90;;;;;;4992952;28;20925;-64
2023/12/30 02:34:15;;;;;;;5.40;1.90;;;8.80;99.90;;;;;;5000321;28;20447;-65
2023/12/30 02:36:43;;;;;;;8.80;2.30;;;8.90;99.90;;;;;;4999848;28;20433;-64
2023/12/30 02:39:09;;;;;;;6.53;1.88;;;8.90;99.90;;;;;;4998042;28;20520;-67
2023/12/30 02:41:37;;;;;;;7.03;2.00;;;9.00;99.90;;;;;;5003542;28;20436;-65
2023/12/30 02:44:04;;;;;;;6.45;2.40;;;9.10;99.90;;;;;;4995952;28;20421;-65
2023/12/30 02:46:31;;;;;;;5.53;1.80;;;9.10;99.90;;;;;;4999811;28;20412;-64
2023/12/30 02:49:02;;;;;;;6.50;1.90;;;9.10;99.90;;;;;;4998178;28;20535;-64
2023/12/30 02:51:29;;;;;;;6.30;1.70;;;9.20;99.90;;;;;;5001037;28;20451;-64
2023/12/30 02:53:55;;;;;;;7.18;2.15;;;9.20;99.90;;;;;;4996327;28;20437;-65
2023/12/30 02:56:23;;;;;;;8.80;1.80;;;9.20;99.90;;;;;;4995090;28;20445;-64
2023/12/30 02:58:55;;;;;;;5.60;2.00;;;9.20;99.90;;;;;;4992111;28;20430;-64
2023/12/30 03:01:23;;;;;;;5.45;2.10;;;9.30;99.90;;;;;;5000579;28;20441;-64
2023/12/30 03:03:51;;;;;;;5.55;1.60;;;9.30;99.90;;;;;;4993358;28;20428;-64
2023/12/30 03:06:18;;;;;;;5.80;2.20;;;9.30;99.90;;;;;;4997404;28;20919;-65
2023/12/30 03:08:45;;;;;;;5.57;1.85;;;9.30;99.90;;;;;;5002228;28;20434;-64
2023/12/30 03:11:11;;;;;;;4.53;1.70;;;9.30;99.90;;;;;;4995710;28;20414;-65
2023/12/30 03:13:38;;;;;;;4.47;1.77;;;9.30;99.90;;;;;;5002276;28;20421;-64
2023/12/30 03:16:07;;;;;;;7.20;2.10;;;9.30;99.90;;;;;;5002229;28;20528;-64
2023/12/30 03:18:34;;;;;;;7.97;2.00;;;9.30;99.90;;;;;;4993595;28;20565;-64
2023/12/30 03:21:01;;;;;;;9.02;2.05;;;9.20;99.90;;;;;;5001534;28;20443;-65
2023/12/30 03:23:28;;;;;;;6.93;1.88;;;9.30;99.90;;;;;;5005408;28;20425;-65
2023/12/30 03:25:55;;;;;;;5.32;1.70;;;9.20;99.90;;;;;;5005252;28;20416;-65
2023/12/30 03:28:21;;;;;;;9.23;2.70;;;9.20;99.90;;;;;;4990996;28;20438;-65
2023/12/30 03:30:48;;;;;;;5.53;2.20;;;9.20;99.90;;;;;;4996773;28;20561;-65
2023/12/30 03:33:16;;;;;;;6.30;2.10;;;9.20;99.90;;;;;;4996957;28;20504;-64
2023/12/30 03:35:43;;;;;;;7.10;2.10;;;9.20;99.90;;;;;;4989964;28;20762;-64
2023/12/30 03:38:10;;;;;;;6.25;1.95;;;9.30;99.90;;;;;;4999701;28;20899;-64
2023/12/30 03:40:37;;;;;;;6.70;2.20;;;9.30;99.90;;;;;;5001425;28;20429;-64
2023/12/30 03:43:04;;;;;;;3.90;1.50;;;9.30;99.90;;;;;;4995880;28;20417;-65
2023/12/30 03:45:30;;;;;;;7.38;1.92;;;9.30;99.90;;;;;;5001908;28;20452;-64
2023/12/30 03:47:57;;;;;;;6.75;2.00;;;9.20;99.90;;;;;;4998851;28;20795;-64
2023/12/30 03:50:25;;;;;;;5.45;1.70;;;9.10;99.90;;;;;;4986741;28;20490;-65
2023/12/30 03:52:52;;;;;;;7.20;2.10;;;8.90;99.90;;;;;;5001380;28;20432;-64
2023/12/30 03:55:19;;;;;;;6.65;1.80;;;8.70;99.90;;;;;;5003487;28;20417;-64
2023/12/30 03:57:45;;;;;;;8.20;2.00;;;8.60;99.90;;;;;;5000079;28;20504;-64
2023/12/30 04:00:13;;;;;;;7.18;2.00;;;8.60;99.90;;;;;;4990146;28;20424;-64
2023/12/30 04:02:41;;;;;;;8.55;2.10;;;8.60;99.90;;;;;;4996458;28;20421;-64
2023/12/30 04:05:08;;;;;;;6.30;2.47;;;8.50;99.90;;;;;;4996319;28;20420;-64
2023/12/30 04:07:36;;;;;;;6.22;2.00;;;8.50;99.90;;;;;;5000287;28;20467;-64
2023/12/30 04:10:03;;;;;;;7.38;1.90;;;8.50;99.90;;;;;;4995761;28;20507;-64
2023/12/30 04:12:32;;;;;;;9.20;3.00;;;8.50;99.90;;;;;;4995711;28;20512;-64
2023/12/30 04:14:59;;;;;;;5.70;1.95;;;8.50;99.90;;;;;;5001618;28;20861;-65
2023/12/30 04:17:25;;;;;;;5.88;2.30;;;8.50;99.90;;;;;;4994384;28;20443;-64
2023/12/30 04:19:52;;;;;;;6.35;1.70;;;8.50;99.90;;;;;;4998576;28;20418;-65
2023/12/30 04:22:19;;;;;;;8.23;2.10;;;8.50;99.90;;;;;;5000502;28;20570;-64
2023/12/30 04:24:47;;;;;;;7.65;2.00;;;8.50;99.90;;;;;;4991808;28;20433;-64
2023/12/30 04:27:13;;;;;;;5.53;1.90;;;8.50;99.90;;;;;;5001590;28;20437;-65
2023/12/30 04:29:40;;;;;;;6.90;1.60;;;8.50;99.90;;;;;;4999765;28;20496;-65
2023/12/30 04:32:07;;;;;;;6.95;1.98;;;8.60;99.90;;;;;;5001374;28;20416;-64
2023/12/30 04:34:34;;;;;;;6.00;1.90;;;8.60;99.90;;;;;;5001647;28;20444;-65
2023/12/30 04:37:00;;;;;;;6.75;2.25;;;8.70;99.90;;;;;;5001207;28;20764;-65
2023/12/30 04:39:27;;;;;;;6.10;2.10;;;8.80;99.90;;;;;;4988078;28;20439;-64
2023/12/30 04:41:55;;;;;;;7.75;2.30;;;8.80;99.90;;;;;;5056861;22;20443;-69
2023/12/30 04:44:22;;;;;;;7.15;2.30;;;8.80;99.90;;;;;;5064263;28;20780;-69
2023/12/30 04:46:49;;;;;;;5.80;1.70;;;8.90;99.90;;;;;;5071111;28;20465;-69
2023/12/30 04:49:15;;;;;;;5.80;1.88;;;8.90;99.90;;;;;;5062733;28;20454;-69
2023/12/30 04:51:42;;;;;;;7.05;2.00;;;8.90;99.90;;;;;;5070190;28;20483;-69
2023/12/30 04:54:09;;;;;;;7.10;1.70;;;8.90;99.90;;;;;;5077468;28;20812;-69
2023/12/30 04:56:36;;;;;;;8.63;2.10;;;8.90;99.90;;;;;;5073562;28;20961;-69
2023/12/30 04:59:04;;;;;;;5.25;2.10;;;8.80;99.90;;;;;;5069590;28;20404;-69
2023/12/30 05:01:31;;;;;;;5.18;1.98;;;8.80;99.90;;;;;;5067974;28;20414;-69
2023/12/30 05:03:58;;;;;;;6.80;2.30;;;8.80;99.90;;;;;;5073091;28;20415;-69
2023/12/30 05:06:25;;;;;;;7.90;2.25;;;8.70;99.90;;;;;;5076969;28;20425;-69
2023/12/30 05:08:53;;;;;;;4.72;2.17;;;8.80;99.90;;;;;;5073142;28;20590;-69
2023/12/30 05:11:23;;;;;;;8.40;2.20;;;8.80;99.90;;;;;;5076401;28;20411;-69
2023/12/30 05:13:50;;;;;;;5.80;1.80;;;8.80;99.90;;;;;;5077647;28;20970;-69
2023/12/30 05:16:18;;;;;;;5.18;1.85;;;8.80;99.90;;;;;;5076037;28;20428;-69
2023/12/30 05:18:45;;;;;;;6.82;2.03;;;8.80;99.90;;;;;;5071739;28;20449;-69
2023/12/30 05:21:15;;;;;;;6.75;1.90;;;8.70;99.90;;;;;;5083549;28;20437;-70
2023/12/30 05:23:42;;;;;;;6.18;2.05;;;8.70;99.90;;;;;;5076113;28;20430;-69
2023/12/30 05:26:10;;;;;;;10.32;2.33;;;8.70;99.90;;;;;;5074138;28;20419;-70
2023/12/30 05:28:36;;;;;;;7.75;2.30;;;8.70;99.90;;;;;;5073032;28;20935;-69
2023/12/30 05:31:03;;;;;;;5.90;1.80;;;8.70;99.90;;;;;;5082176;28;20430;-69
2023/12/30 05:33:31;;;;;;;8.60;2.67;;;8.60;99.90;;;;;;5074516;28;20412;-69
2023/12/30 05:35:58;;;;;;;8.85;2.58;;;8.70;99.90;;;;;;5081882;28;20431;-69
2023/12/30 05:38:25;;;;;;;8.60;2.40;;;8.60;99.90;;;;;;5077112;28;20406;-70
2023/12/30 05:40:52;;;;;;;5.93;1.83;;;8.70;99.90;;;;;;5073829;28;20416;-69
2023/12/30 05:43:18;;;;;;;6.75;1.88;;;8.70;99.90;;;;;;5079063;28;20414;-70
2023/12/30 05:45:45;;;;;;;7.55;1.80;;;8.80;99.90;;;;;;5075907;28;20508;-70
2023/12/30 05:48:13;;;;;;;6.33;1.93;;;8.80;99.90;;;;;;5078880;28;20434;-69
2023/12/30 05:50:41;;;;;;;6.78;1.90;;;8.80;99.90;;;;;;5076145;28;20435;-69
2023/12/30 05:53:10;;;;;;;7.70;2.50;;;8.80;99.90;;;;;;5072783;28;20492;-69
2023/12/30 05:55:37;;;;;;;6.97;2.47;;;8.80;99.90;;;;;;5076657;28;20425;-69
2023/12/30 05:58:04;;;;;;;5.82;1.80;;;8.80;99.90;;;;;;5076340;28;20943;-69
2023/12/30 06:00:31;;;;;;;7.25;1.92;;;8.70;99.90;;;;;;5074715;28;20421;-69
2023/12/30 06:02:57;;;;;;;5.53;2.00;;;8.70;99.90;;;;;;5076285;28;20418;-69
2023/12/30 06:05:24;;;;;;;7.40;2.20;;;8.70;99.90;;;;;;5078824;28;20503;-69
2023/12/30 06:07:52;;;;;;;5.30;2.00;;;8.70;99.90;;;;;;5076723;28;20954;-69
2023/12/30 06:10:20;;;;;;;6.20;1.80;;;8.70;99.90;;;;;;5074895;28;20426;-69
2023/12/30 06:12:46;;;;;;;7.30;2.30;;;8.70;99.90;;;;;;5074004;28;20436;-69
2023/12/30 06:15:13;;;;;;;4.95;1.88;;;8.70;99.90;;;;;;5075041;28;20411;-70
2023/12/30 06:17:40;;;;;;;7.05;1.70;;;8.70;99.90;;;;;;5073179;28;20419;-70
2023/12/30 06:20:09;;;;;;;6.80;2.00;;;8.80;99.90;;;;;;5076424;28;20930;-71
2023/12/30 06:22:35;;;;;;;6.47;2.00;;;8.70;99.90;;;;;;5079836;28;20445;-69
2023/12/30 06:25:04;;;;;;;6.15;1.95;;;8.80;99.90;;;;;;5070190;28;20480;-69
2023/12/30 06:27:31;;;;;;;7.13;1.70;;;8.80;99.90;;;;;;5071921;28;20418;-69
2023/12/30 06:29:58;;;;;;;7.80;2.13;;;8.90;99.90;;;;;;5075221;28;20408;-71
2023/12/30 06:32:24;;;;;;;4.95;1.58;;;8.90;99.90;;;;;;5075400;28;20436;-71
2023/12/30 06:34:51;;;;;;;6.57;1.75;;;8.90;99.90;;;;;;5078478;28;20418;-71
2023/12/30 06:37:18;;;;;;;6.50;2.30;;;8.90;99.90;;;;;;5078821;28;20417;-69
2023/12/30 06:39:45;;;;;;;7.32;2.00;;;8.90;99.90;;;;;;5067937;28;20945;-69
2023/12/30 06:42:14;;;;;;;8.38;2.10;;;8.90;99.90;;;;;;5080699;28;20413;-69
2023/12/30 06:44:41;;;;;;;8.32;2.20;;;8.90;99.90;;;;;;5069814;28;21281;-69
2023/12/30 06:47:07;;;;;;;7.35;2.40;;;8.90;99.90;;;;;;5066760;28;20416;-69
2023/12/30 06:49:34;;;;;;;6.25;1.50;;;8.90;99.90;;;;;;5073676;28;20426;-71
2023/12/30 06:52:01;;;;;;;6.43;2.20;;;8.90;99.90;;;;;;5069723;28;20423;-69
2023/12/30 06:54:27;;;;;;;8.57;2.00;;;8.80;99.90;;;;;;5071595;28;20507;-71
2023/12/30 06:56:54;;;;;;;5.30;1.70;;;8.80;99.90;;;;;;5073242;28;20419;-71
2023/12/30 06:59:22;;;;;;;8.77;1.93;;;8.80;99.90;;;;;;5073395;28;20419;-70
2023/12/30 07:01:50;;;;;;;5.85;2.10;;;8.80;99.90;;;;;;5073614;28;20414;-69
2023/12/30 07:04:17;;;;;;;5.22;1.85;;;8.80;99.90;;;;;;5075497;28;20415;-70
2023/12/30 07:06:43;;;;;;;4.70;1.98;;;8.80;99.90;;;;;;5075153;28;20925;-69
2023/12/30 07:09:10;;;;;;;6.88;2.10;;;8.80;99.90;;;;;;5076829;28;20437;-69
2023/12/30 07:11:37;;;;;;;7.05;1.98;;;8.90;99.90;;;;;;5077191;28;20768;-69
2023/12/30 07:14:04;;;;;;;7.25;1.90;;;8.90;99.90;;;;;;5081134;28;20411;-69
2023/12/30 07:16:32;;;;;;;4.57;1.70;;;8.90;99.90;;;;;;5072841;28;20426;-69
2023/12/30 07:18:58;;;;;;;8.02;2.20;;;8.90;99.90;;;;;;5071017;28;20429;-69
2023/12/30 07:21:25;;;;;;;5.20;2.00;;;8.90;99.90;;;;;;5073052;28;20496;-71
2023/12/30 07:23:52;;;;;;;6.80;2.50;;;8.90;99.90;;;;;;5079137;28;20434;-70
2023/12/30 07:26:18;;;;;;;6.32;1.80;;;9.00;99.90;;;;;;5071288;28;20792;-69
2023/12/30 07:28:45;;;;;;;8.00;2.08;;;8.90;99.90;;;;;;5069110;28;20425;-69
2023/12/30 07:31:13;;;;;;;5.83;2.10;;;8.90;99.90;;;;;;5073930;28;20497;-70
2023/12/30 07:33:41;;;;;;;5.72;1.85;;;8.90;99.90;;;;;;5075266;28;20427;-69
2023/12/30 07:36:08;;;;;;;6.30;2.20;;;8.80;99.90;;;;;;5076805;28;20510;-69
2023/12/30 07:38:35;;;;;;;5.25;1.80;;;8.80;99.90;;;;;;5081016;28;20402;-69
2023/12/30 07:41:02;;;;;;;6.15;2.10;;;8.80;99.90;;;;;;5070811;28;20461;-69
2023/12/30 07:43:28;;;;;;;5.50;2.00;;;8.80;99.90;;;;;;5075766;28;20424;-70
2023/12/30 07:45:55;;;;;;;7.32;1.95;;;8.70;99.90;;;;;;5076198;28;20617;-69
2023/12/30 07:48:22;;;;;;;4.70;1.60;;;8.70;99.90;;;;;;5066602;28;20430;-70
2023/12/30 07:50:50;;;;;;;5.97;1.52;;;8.70;99.90;;;;;;5080743;28;20445;-69
2023/12/30 07:53:17;;;;;;;6.07;1.75;;;8.70;99.90;;;;;;5077716;28;20422;-69
2023/12/30 07:55:43;;;;;;;5.03;1.58;;;8.80;99.90;;;;;;5073810;28;20890;-70
2023/12/30 07:58:10;;;;;;;5.80;1.80;;;8.80;99.90;;;;;;5071627;28;20785;-70
2023/12/30 08:00:38;;;;;;;5.55;1.80;;;8.90;99.90;;;;;;5075131;28;20414;-70
2023/12/30 08:03:05;;;;;;;4.50;1.50;;;8.80;99.90;;;;;;5072712;28;20892;-70
2023/12/30 08:05:31;;;;;;;4.53;1.60;;;8.80;99.90;;;;;;5070619;28;20418;-72
2023/12/30 08:07:59;;;;;;;4.40;1.55;;;8.80;99.90;;;;;;5073870;28;20938;-69
2023/12/30 08:10:26;;;;;;;7.18;1.42;;;8.80;99.90;;;;;;5072478;28;20422;-69
2023/12/30 08:12:53;;;;;;;5.30;1.90;;;8.80;99.90;;;;;;5078934;28;20417;-68
2023/12/30 08:15:20;;;;;;;5.20;2.45;;;8.80;99.90;;;;;;5074460;28;20408;-69
2023/12/30 08:17:46;;;;;;;3.70;1.40;;;8.90;99.90;;;;;;5071171;28;20427;-69
2023/12/30 08:20:13;;;;;;;6.75;2.00;;;9.00;99.90;;;;;;5072108;28;20435;-70
2023/12/30 08:22:40;;;;;;;8.43;2.30;;;9.00;99.90;;;;;;5069834;28;20422;-70
2023/12/30 08:25:09;;;;;;;4.97;1.70;;;8.90;99.90;;;;;;5079788;28;20839;-70
2023/12/30 08:27:37;;;;;;;5.40;1.60;;;8.90;99.90;;;;;;5079656;28;20827;-70
2023/12/30 08:30:04;;;;;;;6.97;2.10;;;9.00;99.90;;;;;;5073115;28;20501;-70
2023/12/30 08:32:31;;;;;;;7.18;1.77;;;9.00;99.90;;;;;;5076153;28;20513;-70
2023/12/30 08:34:58;;;;;;;5.95;1.60;;;9.00;99.90;;;;;;5073745;28;20949;-70
2023/12/30 08:37:25;;;;;;;5.75;2.22;;;9.00;99.90;;;;;;5079285;28;20430;-70
2023/12/30 08:39:51;;;;;;;6.27;2.50;;;9.00;99.90;;;;;;5070447;28;20407;-70
2023/12/30 08:42:20;;;;;;;6.32;2.10;;;9.00;99.90;;;;;;5085144;28;20410;-70
2023/12/30 08:44:46;;;;;;;8.02;2.95;;;9.00;99.90;;;;;;5080669;28;20428;-69
2023/12/30 08:47:15;;;;;;;5.20;1.80;;;9.00;99.90;;;;;;5070451;28;20423;-69
2023/12/30 08:49:42;;;;;;;6.28;1.77;;;9.00;99.90;;;;;;5075212;28;20436;-69
2023/12/30 08:52:09;;;;;;;6.88;2.30;;;9.10;99.90;;;;;;5070945;28;20874;-69
2023/12/30 08:54:40;;;;;;;6.20;2.90;;;9.10;99.90;;;;;;5075757;28;20775;-71
2023/12/30 08:57:07;;;;;;;6.50;2.20;;;9.10;99.90;;;;;;5074219;28;20772;-69
2023/12/30 08:59:35;;;;;;;6.35;2.33;;;9.10;99.90;;;;;;5073144;28;20418;-69
2023/12/30 09:02:02;;;;;;;6.80;2.80;;;9.20;99.90;;;;;;5073041;28;20418;-69
2023/12/30 09:04:29;;;;;;;7.70;2.40;;;9.10;99.90;;;;;;5079418;28;20433;-70
2023/12/30 09:06:56;;;;;;;8.55;2.17;;;9.10;99.90;;;;;;5075813;28;20458;-69
2023/12/30 09:09:23;;;;;;;4.47;1.95;;;9.10;99.90;;;;;;5079072;28;20433;-69
2023/12/30 09:11:49;;;;;;;6.40;2.25;;;9.10;99.90;;;;;;5074958;28;20786;-69
2023/12/30 09:14:16;;;;;;;8.57;2.78;;;9.20;99.90;;;;;;5072171;28;20438;-69
2023/12/30 09:16:44;;;;;;;6.70;2.10;;;9.20;99.90;;;;;;5078243;28;20498;-70
2023/12/30 09:19:11;;;;;;;7.35;2.28;;;9.20;99.90;;;;;;5078975;28;21018;-70
2023/12/30 09:21:37;;;;;;;5.13;2.13;;;9.30;99.90;;;;;;5082484;28;20434;-69
2023/12/30 09:24:05;;;;;;;6.90;2.50;;;9.30;99.90;;;;;;5077357;28;20417;-70
2023/12/30 09:26:31;;;;;;;5.68;2.10;;;9.40;99.90;;;;;;5072844;28;20979;-70
2023/12/30 09:28:58;;;;;;;7.95;2.42;;;9.40;99.90;;;;;;5079517;28;20433;-70
2023/12/30 09:31:26;;;;;;;4.95;1.90;;;9.40;99.90;;;;;;5073596;28;20408;-70
2023/12/30 09:33:55;;;;;;;5.97;2.05;;;9.40;99.90;;;;;;5076229;28;20786;-71
2023/12/30 09:36:22;;;;;;;6.90;2.20;;;9.50;99.90;;;;;;5069821;28;20469;-70
2023/12/30 09:38:49;;;;;;;7.28;2.20;;;9.50;99.90;;;;;;5077344;28;20447;-70
2023/12/30 09:41:18;;;;;;;6.00;1.90;;;9.50;99.90;;;;;;5078145;28;20410;-71
2023/12/30 09:43:46;;;;;;;6.20;2.20;;;9.60;99.90;;;;;;5078819;28;20419;-71
2023/12/30 09:46:14;;;;;;;5.25;2.33;;;9.60;99.90;;;;;;5076526;28;20446;-70
2023/12/30 09:48:43;;;;;;;6.93;2.25;;;9.60;99.90;;;;;;5075631;28;20489;-71
2023/12/30 09:51:12;;;;;;;7.18;2.58;;;9.70;99.90;;;;;;5068646;28;20906;-71
2023/12/30 09:53:38;;;;;;;7.90;2.20;;;9.70;99.90;;;;;;5074248;28;20410;-70
2023/12/30 09:56:06;;;;;;;6.37;2.10;;;9.70;99.90;;;;;;5077271;28;20399;-70
2023/12/30 09:58:34;;;;;;;7.03;2.28;;;9.70;99.90;;;;;;5077555;28;20410;-71
2023/12/30 10:01:00;;;;;;;6.23;2.10;;;9.80;99.90;;;;;;5079282;28;20425;-70
2023/12/30 10:03:28;;;;;;;7.60;2.30;;;9.80;99.90;;;;;;5079911;28;20421;-71
2023/12/30 10:05:58;;;;;;;4.50;2.00;;;9.80;99.90;;;;;;5076056;28;20463;-72
2023/12/30 10:08:28;;;;;;;6.57;2.08;;;9.90;99.90;;;;;;5075096;28;20417;-71
2023/12/30 10:10:54;;;;;;;6.78;2.00;;;9.80;99.90;;;;;;5075539;28;20431;-70
2023/12/30 10:13:25;;;;;;;5.60;1.70;;;9.80;99.90;;;;;;5078760;28;20430;-71
2023/12/30 10:15:53;;;;;;;5.55;2.10;;;9.80;99.90;;;;;;5075084;28;20412;-71
2023/12/30 10:18:20;;;;;;;6.53;2.50;;;9.90;99.90;;;;;;5067809;28;20427;-71
2023/12/30 10:20:47;;;;;;;7.70;3.00;;;9.90;99.90;;;;;;5075970;28;20805;-70
2023/12/30 10:23:15;;;;;;;7.57;2.00;;;9.90;99.90;;;;;;5069440;28;20408;-71
2023/12/30 10:25:43;;;;;;;6.50;1.98;;;9.90;99.90;;;;;;5069504;28;21185;-72
2023/12/30 10:28:10;;;;;;;4.50;1.50;;;10.00;99.90;;;;;;5076358;28;20412;-71
2023/12/30 10:30:36;;;;;;;6.70;2.10;;;10.00;99.90;;;;;;5075538;28;20798;-71
2023/12/30 10:33:07;;;;;;;7.80;1.95;;;10.00;99.90;;;;;;5075269;28;20430;-70
2023/12/30 10:35:34;;;;;;;4.47;1.70;;;10.00;99.90;;;;;;5072371;28;20769;-71
2023/12/30 10:38:02;;;;;;;5.20;1.83;;;10.10;99.90;;;;;;5073076;28;20845;-70
2023/12/30 10:40:29;;;;;;;4.95;1.65;;;10.10;99.90;;;;;;5075425;28;20411;-69
2023/12/30 10:42:57;;;;;;;6.82;2.10;;;10.20;99.90;;;;;;5069453;28;20419;-70
2023/12/30 10:45:24;;;;;;;5.00;1.90;;;10.20;99.90;;;;;;5069712;28;20404;-70
2023/12/30 10:47:51;;;;;;;5.43;1.80;;;10.30;99.90;;;;;;5068556;28;20450;-70
2023/12/30 10:50:20;;;;;;;5.80;1.90;;;10.40;99.90;;;;;;5073580;28;20475;-70
2023/12/30 10:53:02;;;;;;;5.05;1.80;;;10.40;99.90;;;;;;5074967;28;20457;-70
2023/12/30 10:55:32;;;;;;;4.72;2.00;;;10.50;99.90;;;;;;5077064;28;20432;-71
2023/12/30 10:58:04;;;;;;;8.60;2.33;;;10.60;99.90;;;;;;5074393;28;20997;-71
2023/12/30 11:00:36;;;;;;;6.30;2.10;;;10.70;99.90;;;;;;5069184;28;20410;-71
2023/12/30 11:03:04;;;;;;;4.20;1.75;;;10.70;99.90;;;;;;5075026;28;20439;-71
2023/12/30 11:05:34;;;;;;;7.23;2.00;;;10.80;99.90;;;;;;5070318;28;20407;-71
2023/12/30 11:08:01;;;;;;;5.15;1.73;;;10.90;99.90;;;;;;5072100;28;20407;-70
2023/12/30 11:10:28;;;;;;;4.00;1.73;;;10.90;99.90;;;;;;5072251;28;20933;-70
2023/12/30 11:12:55;;;;;;;6.30;2.10;;;10.90;99.90;;;;;;5073614;28;20493;-71
2023/12/30 11:15:28;;;;;;;4.43;1.90;;;11.00;99.90;;;;;;5070981;28;20411;-70
2023/12/30 11:17:56;;;;;;;4.93;1.90;;;11.10;99.90;;;;;;5076383;28;20431;-70
2023/12/30 11:20:28;;;;;;;5.90;1.80;;;11.20;99.90;;;;;;5074070;28;20447;-70
2023/12/30 11:22:57;;;;;;;5.70;1.95;;;11.40;99.90;;;;;;5072612;28;20422;-70
2023/12/30 11:25:33;;;;;;;6.17;1.80;;;11.50;99.90;;;;;;5075862;28;20937;-71
2023/12/30 11:28:13;;;;;;;5.90;2.00;;;11.70;99.80;;;;;;5071761;28;20404;-70
2023/12/30 11:30:45;;;;;;;3.95;1.75;;;11.70;98.70;;;;;;5076460;28;20433;-70
2023/12/30 11:33:13;;;;;;;5.97;1.67;;;11.80;97.00;;;;;;5073968;28;20422;-71
2023/12/30 11:35:40;;;;;;;6.20;1.70;;;11.80;97.60;;;;;;5072621;28;20483;-70
2023/12/30 11:38:08;;;;;;;5.85;2.00;;;11.80;97.90;;;;;;5071076;28;20420;-70
2023/12/30 11:40:41;;;;;;;6.45;1.83;;;11.80;96.70;;;;;;5078110;28;20417;-70
2023/12/30 11:43:10;;;;;;;5.50;1.98;;;11.90;96.90;;;;;;5076877;28;20419;-71
2023/12/30 11:45:37;;;;;;;5.05;1.70;;;12.00;96.60;;;;;;5076651;28;20413;-70
2023/12/30 11:48:06;;;;;;;6.60;1.70;;;11.90;96.70;;;;;;5076551;28;20481;-70
2023/12/30 11:50:33;;;;;;;7.03;2.30;;;11.90;96.60;;;;;;5073563;28;20427;-69
2023/12/30 11:53:01;;;;;;;3.08;1.50;;;11.80;96.70;;;;;;5073594;28;20496;-70
2023/12/30 11:55:28;;;;;;;4.03;1.55;;;11.70;97.30;;;;;;5077386;28;20591;-69
2023/12/30 11:57:55;;;;;;;6.47;2.10;;;11.70;97.20;;;;;;5071176;28;20420;-70
2023/12/30 12:00:24;;;;;;;5.77;1.60;;;11.70;97.50;;;;;;5069784;28;20494;-70
2023/12/30 12:02:51;;;;;;;6.20;1.80;;;11.70;97.50;;;;;;5074860;28;20914;-70
2023/12/30 12:05:19;;;;;;;5.60;1.40;;;11.80;96.90;;;;;;5081718;28;20421;-70
2023/12/30 12:07:46;;;;;;;4.47;1.40;;;12.20;96.70;;;;;;5072629;28;20444;-69
2023/12/30 12:10:13;;;;;;;4.32;1.90;;;12.60;93.70;;;;;;5073784;28;20469;-70
2023/12/30 12:12:42;;;;;;;6.60;2.20;;;12.60;92.70;;;;;;5054209;22;20431;-63
2023/12/30 12:15:10;;;;;;;5.32;1.50;;;12.30;93.30;;;;;;5028330;28;20436;-63
2023/12/30 12:17:37;;;;;;;5.50;1.90;;;12.20;94.20;;;;;;5030019;28;20445;-64
2023/12/30 12:20:08;;;;;;;4.78;1.70;;;12.20;93.30;;;;;;5026322;28;20438;-63
2023/12/30 12:22:36;;;;;;;7.40;2.10;;;12.20;93.90;;;;;;5033302;28;20423;-64
2023/12/30 12:25:03;;;;;;;6.82;2.17;;;12.40;94.00;;;;;;5030127;28;20528;-64
2023/12/30 12:27:32;;;;;;;4.35;1.55;;;12.60;92.70;;;;;;5027469;28;20430;-64
2023/12/30 12:30:00;;;;;;;5.70;1.73;;;12.80;90.40;;;;;;5023955;28;20936;-64
2023/12/30 12:32:27;;;;;;;5.00;1.70;;;13.00;89.40;;;;;;5022285;28;20446;-64
2023/12/30 12:34:54;;;;;;;5.47;2.00;;;13.10;89.20;;;;;;5026521;28;20434;-64
2023/12/30 12:37:20;;;;;;;4.35;1.50;;;13.30;83.40;;;;;;5025351;28;20433;-64
2023/12/30 12:39:49;;;;;;;5.90;1.60;;;13.30;79.20;;;;;;5027670;28;20418;-64
2023/12/30 12:42:16;;;;;;;6.03;1.55;;;13.10;80.00;;;;;;5028545;28;20445;-64
2023/12/30 12:44:43;;;;;;;5.90;1.88;;;13.00;82.10;;;;;;5021346;28;20424;-64
2023/12/30 12:47:10;;;;;;;5.22;2.00;;;13.10;81.00;;;;;;5022226;28;20431;-64
2023/12/30 12:49:37;;;;;;;3.03;1.60;;;13.10;81.90;;;;;;5024650;28;20423;-64
2023/12/30 12:52:04;;;;;;;5.22;1.40;;;13.10;81.80;;;;;;5033373;28;20873;-64
2023/12/30 12:54:31;;;;;;;3.45;1.70;;;13.10;78.70;;;;;;5024705;28;21233;-64
2023/12/30 12:56:59;;;;;;;4.35;1.52;;;13.00;80.80;;;;;;5026911;28;20790;-64